Strona główna
METAR-TAF:

METAR-TAF

Lotnisko :

Port lotniczy Udon Thani

Udon Thani, Tajlandia

Szerokość geograficzna: 17-23N, Długość geograficzna: 102-48E, wysokość: 177 m

Aktualna obserwacja pogody

Raport powstał 20 minut temu, godzina 05:00 UTC
Wiatr 9 kt od północno-północny wschód, zmienny między północno-północny zachód i wschód
Temperatura 23°C
Wilgotność 23%
Ciśnienie 1022 hPa
Widzialność 10 km lub więcej
Brak chmur poniżej 1500 m i brak chmur cumulonimbus

METAR: VTUD 070500Z 03009KT 340V080 CAVOK 23/01 Q1022 NOSIG

czas: 12:20 (05:20 UTC)

Prognoza

Raport powstał 6 godziny i 20 minut temu, godzina 23:00 UTC
Prognoza ważna od 07 godzina 00 UTC do 07 godzina 24 UTC
Wiatr 10 kt od wschodnio-północny wschód
Widzialność 10 km lub więcej
Brak chmur poniżej 1500 m i brak chmur cumulonimbus

TAF: VTUD 062300Z 0700/0724 06010KT CAVOK

Obserwacja i prognoza pogody dla ponad 4000 lotnisk (raport METAR i TAF).

Dostępne stacje oznaczono żółtymi i czerwonymi punktami na mapie.

Najedź kursorem aby zobaczyć nazwę stacji.

Kliknij aby zobaczyć obserwacje i prognozy pogody.

Aby zmienić mapę: kliknij na zielony przycisk z czarnym krzyżykiem, aby powiększyć; na zielony przycisk z myślnikiem, aby pomniejszyć; na zielone strzałki, aby przejść do map sąsiednich.


METAR-TAF: